Time;durP1;ratioP1;P1;durP2;ratioP2;P2;SDS_P1;SDS_P2;PMS_P1;PMS_P2;Temp;Humidity;BMP_temperature;BMP_pressure;BME280_temperature;BME280_humidity;BME280_pressure;Samples;Min_cycle;Max_cycle;Signal;HPM_P1;HPM_P2
2023/09/11 00:02:18;;;;;;;26.20;15.90;;;;;;;23.10;73.71;99776.03;5086557;28;20032;-80
2023/09/11 00:04:43;;;;;;;22.57;16.67;;;;;;;23.07;73.53;99766.41;5085764;28;20036;-80
2023/09/11 00:07:08;;;;;;;18.93;14.10;;;;;;;23.04;73.60;99769.91;5086126;28;20380;-79
2023/09/11 00:09:33;;;;;;;26.43;14.27;;;;;;;22.99;73.71;99764.56;5086394;28;20640;-79
2023/09/11 00:11:58;;;;;;;23.27;15.90;;;;;;;22.96;73.58;99765.28;5085772;28;20043;-79
2023/09/11 00:14:24;;;;;;;21.57;14.53;;;;;;;22.94;73.54;99748.94;5085741;28;20090;-80
2023/09/11 00:16:49;;;;;;;23.77;14.73;;;;;;;22.95;73.50;99766.44;5086126;28;20659;-79
2023/09/11 00:19:14;;;;;;;19.80;12.77;;;;;;;22.94;73.10;99757.28;5085917;28;20035;-79
2023/09/11 00:21:39;;;;;;;25.77;11.70;;;;;;;22.95;72.94;99761.69;5085524;28;20804;-80
2023/09/11 00:24:05;;;;;;;29.50;11.27;;;;;;;22.93;72.98;99747.31;5085447;28;20032;-80
2023/09/11 00:26:31;;;;;;;21.58;12.38;;;;;;;22.91;72.93;99741.31;5085697;28;20036;-80
2023/09/11 00:28:56;;;;;;;20.63;12.75;;;;;;;22.87;72.97;99743.16;5085574;28;20061;-81
2023/09/11 00:31:21;;;;;;;20.35;11.82;;;;;;;22.86;72.88;99741.56;5085738;28;20071;-79
2023/09/11 00:33:47;;;;;;;18.45;11.70;;;;;;;22.88;72.77;99744.81;5085201;28;20046;-80
2023/09/11 00:36:12;;;;;;;25.25;11.80;;;;;;;22.84;73.15;99739.09;5085672;28;20036;-79
2023/09/11 00:38:37;;;;;;;17.33;11.23;;;;;;;22.82;73.13;99740.63;5085485;28;20039;-80
2023/09/11 00:41:02;;;;;;;18.43;11.67;;;;;;;22.79;73.03;99741.31;5085363;28;20144;-82
2023/09/11 00:43:28;;;;;;;22.05;13.13;;;;;;;22.76;72.94;99740.03;5084259;28;20304;-78
2023/09/11 00:45:55;;;;;;;18.30;12.20;;;;;;;22.74;73.01;99737.63;5085691;28;20069;-81
2023/09/11 00:48:21;;;;;;;28.17;11.93;;;;;;;22.72;72.89;99737.16;5084852;28;20367;-79
2023/09/11 00:50:46;;;;;;;20.15;11.65;;;;;;;22.70;73.00;99735.91;5085689;28;20138;-79
2023/09/11 00:53:12;;;;;;;16.73;12.13;;;;;;;22.71;72.94;99732.78;5085242;28;20051;-81
2023/09/11 00:55:39;;;;;;;22.67;11.90;;;;;;;22.64;73.16;99735.28;5084464;28;20058;-80
2023/09/11 00:58:04;;;;;;;25.98;11.95;;;;;;;22.60;73.37;99734.34;5085417;28;20032;-79
2023/09/11 01:00:30;;;;;;;19.45;11.57;;;;;;;22.59;73.45;99733.56;5085545;28;20031;-81
2023/09/11 01:02:57;;;;;;;24.45;12.00;;;;;;;22.58;73.21;99731.94;5084712;28;20032;-80
2023/09/11 01:05:27;;;;;;;28.70;11.20;;;;;;;22.57;73.71;99730.31;5083356;28;20085;-80
2023/09/11 01:07:53;;;;;;;24.55;11.15;;;;;;;22.59;73.76;99727.19;5082397;28;20066;-80
2023/09/11 01:10:18;;;;;;;20.52;11.70;;;;;;;22.60;73.34;99734.34;5082938;28;20320;-80
2023/09/11 01:12:44;;;;;;;20.02;10.65;;;;;;;22.59;73.44;99722.44;5082616;28;20598;-80
2023/09/11 01:15:10;;;;;;;18.17;11.73;;;;;;;22.60;73.67;99724.06;5081706;28;20024;-80
2023/09/11 01:18:05;;;;;;;29.25;13.32;;;;;;;22.60;73.48;99720.47;5082355;28;20390;-79
2023/09/11 01:20:49;;;;;;;22.52;13.23;;;;;;;22.58;73.61;99731.94;5081978;28;20477;-81
2023/09/11 01:23:50;;;;;;;21.35;12.13;;;;;;;22.56;73.71;99727.88;5081799;28;20055;-80
2023/09/11 01:26:24;;;;;;;24.20;11.98;;;;;;;22.55;74.20;99727.09;5081891;28;20032;-79
2023/09/11 01:29:24;;;;;;;21.67;12.60;;;;;;;22.55;74.03;99726.25;5082341;28;20027;-80
2023/09/11 01:31:50;;;;;;;17.38;11.18;;;;;;;22.52;74.39;99733.31;5083582;28;20115;-80
2023/09/11 01:34:15;;;;;;;27.45;13.18;;;;;;;22.51;74.22;99726.97;5083151;28;20328;-79
2023/09/11 01:36:40;;;;;;;22.88;11.18;;;;;;;22.51;74.37;99726.97;5083638;28;20490;-79
2023/09/11 01:39:06;;;;;;;23.50;12.32;;;;;;;22.54;73.77;99728.22;5083876;28;20036;-80
2023/09/11 01:41:34;;;;;;;19.52;10.88;;;;;;;22.56;73.88;99722.31;5084070;28;20070;-80
2023/09/11 01:44:08;;;;;;;23.63;10.23;;;;;;;22.60;73.78;99720.47;5083280;28;20036;-81
2023/09/11 01:46:34;;;;;;;20.73;11.57;;;;;;;22.64;73.20;99718.59;5083463;28;20044;-81
2023/09/11 01:49:01;;;;;;;22.00;10.57;;;;;;;22.76;72.42;99717.81;5083830;28;20473;-81
2023/09/11 01:51:29;;;;;;;15.65;11.18;;;;;;;22.82;72.29;99710.06;5082843;28;20682;-80
2023/09/11 01:53:54;;;;;;;24.05;10.60;;;;;;;22.80;72.19;99704.84;5083274;28;20089;-79
2023/09/11 01:56:20;;;;;;;19.85;9.93;;;;;;;22.81;72.02;99706.47;5082537;28;20043;-80
2023/09/11 01:58:45;;;;;;;21.15;9.05;;;;;;;22.85;71.86;99712.13;5084023;28;20040;-80
2023/09/11 02:01:10;;;;;;;18.43;10.27;;;;;;;22.85;71.47;99706.59;5083919;28;20032;-79
2023/09/11 02:03:36;;;;;;;20.07;9.43;;;;;;;22.84;71.45;99705.75;5082077;28;20550;-80
2023/09/11 02:06:01;;;;;;;18.38;10.80;;;;;;;22.82;71.47;99707.28;5044625;28;1127777;-80
2023/09/11 02:08:26;;;;;;;24.77;9.87;;;;;;;22.79;71.49;99700.47;5084468;28;20123;-79
2023/09/11 02:10:53;;;;;;;21.52;10.75;;;;;;;22.77;71.61;99699.19;5084404;28;20256;-79
2023/09/11 02:13:19;;;;;;;24.30;9.85;;;;;;;22.76;71.69;99703.13;5084474;28;20067;-79
2023/09/11 02:15:44;;;;;;;27.52;10.90;;;;;;;22.80;71.77;99701.28;5083453;28;20044;-79
2023/09/11 02:18:10;;;;;;;23.70;11.63;;;;;;;22.80;71.73;99698.50;5083489;28;20401;-80
2023/09/11 02:20:35;;;;;;;22.43;10.33;;;;;;;22.79;72.00;99692.13;5084080;28;20352;-80
2023/09/11 02:23:00;;;;;;;25.80;11.03;;;;;;;22.83;71.95;99703.34;5084383;28;20330;-80
2023/09/11 02:25:26;;;;;;;18.80;10.47;;;;;;;22.92;71.15;99692.91;5083652;28;20268;-80
2023/09/11 02:27:51;;;;;;;16.17;10.90;;;;;;;23.04;71.04;99694.03;5084072;28;20043;-79
2023/09/11 02:30:16;;;;;;;21.77;10.47;;;;;;;23.11;70.51;99685.91;5084157;28;20123;-82
2023/09/11 02:32:41;;;;;;;22.27;9.52;;;;;;;23.16;69.67;99693.19;5084066;28;20261;-79
2023/09/11 02:35:07;;;;;;;17.57;10.50;;;;;;;23.23;69.44;99687.03;5084114;28;20040;-81
2023/09/11 02:37:32;;;;;;;24.67;10.50;;;;;;;23.32;68.84;99696.03;5084415;28;20921;-80
2023/09/11 02:40:00;;;;;;;24.77;9.93;;;;;;;23.37;68.92;99683.84;5084614;28;20032;-80
2023/09/11 02:42:25;;;;;;;24.75;10.48;;;;;;;23.39;68.93;99685.09;5084200;28;20710;-80
2023/09/11 02:44:50;;;;;;;14.10;9.85;;;;;;;23.39;69.07;99685.09;5083883;28;20133;-78
2023/09/11 02:47:15;;;;;;;17.37;9.77;;;;;;;23.43;68.66;99683.22;5084351;28;20122;-80
2023/09/11 02:49:41;;;;;;;18.43;9.43;;;;;;;23.46;68.55;99683.69;5084495;28;20257;-79
2023/09/11 02:52:06;;;;;;;16.10;10.00;;;;;;;23.46;68.33;99686.47;5084053;28;20269;-80
2023/09/11 02:54:31;;;;;;;19.45;10.88;;;;;;;23.41;68.95;99685.53;5084144;28;20343;-79
2023/09/11 02:56:57;;;;;;;22.73;10.40;;;;;;;23.39;68.86;99684.31;5083861;28;20048;-80
2023/09/11 02:59:22;;;;;;;28.70;11.13;;;;;;;23.43;68.44;99680.44;5084618;28;20486;-80
2023/09/11 03:01:47;;;;;;;19.42;10.57;;;;;;;23.44;68.58;99682.09;5083869;28;20323;-79
2023/09/11 03:04:12;;;;;;;15.23;9.33;;;;;;;23.46;68.21;99678.97;5083896;28;20058;-80
2023/09/11 03:06:38;;;;;;;25.43;10.07;;;;;;;23.44;68.46;99679.31;5085279;28;20052;-80
2023/09/11 03:09:05;;;;;;;16.53;10.50;;;;;;;23.38;68.72;99680.72;5086255;28;20647;-80
2023/09/11 03:11:30;;;;;;;25.20;9.88;;;;;;;23.37;68.65;99673.50;5087141;28;20020;-79
2023/09/11 03:13:56;;;;;;;19.05;9.57;;;;;;;23.39;68.53;99668.41;5087257;28;20524;-80
2023/09/11 03:16:21;;;;;;;23.33;11.07;;;;;;;23.34;68.50;99663.13;5087557;28;20385;-79
2023/09/11 03:18:46;;;;;;;20.70;9.97;;;;;;;23.27;68.87;99669.28;5087375;28;20692;-79
2023/09/11 03:21:12;;;;;;;21.85;10.38;;;;;;;23.21;69.12;99662.34;5087297;28;20036;-79
2023/09/11 03:23:37;;;;;;;18.80;9.87;;;;;;;23.14;69.23;99665.75;5087187;28;20032;-79
2023/09/11 03:26:02;;;;;;;21.80;9.80;;;;;;;23.08;68.75;99667.97;5087181;28;20758;-79
2023/09/11 03:28:29;;;;;;;21.60;10.10;;;;;;;23.02;69.06;99669.38;5086729;28;20031;-80
2023/09/11 03:30:55;;;;;;;19.33;11.02;;;;;;;22.97;69.19;99664.88;5086692;28;20031;-79
2023/09/11 03:33:20;;;;;;;23.15;11.10;;;;;;;22.90;69.54;99661.91;5087419;28;20446;-80
2023/09/11 03:35:46;;;;;;;23.58;10.80;;;;;;;22.97;69.35;99662.09;5086966;28;20047;-79
2023/09/11 03:38:12;;;;;;;18.35;10.15;;;;;;;23.01;69.09;99666.94;5086949;28;20040;-79
2023/09/11 03:40:37;;;;;;;20.35;10.48;;;;;;;23.07;68.67;99662.75;5087146;28;20028;-79
2023/09/11 03:43:03;;;;;;;16.73;8.67;;;;;;;23.16;68.10;99666.22;5087220;28;20036;-80
2023/09/11 03:45:28;;;;;;;20.73;10.68;;;;;;;23.16;68.02;99657.88;5086414;28;20279;-80
2023/09/11 03:47:53;;;;;;;18.60;9.63;;;;;;;23.13;67.99;99661.34;5087440;28;20024;-80
2023/09/11 03:50:19;;;;;;;16.80;9.70;;;;;;;23.03;68.37;99662.66;5087249;28;20317;-79
2023/09/11 03:52:44;;;;;;;22.92;10.55;;;;;;;22.98;68.20;99660.91;5086640;28;20275;-80
2023/09/11 03:55:09;;;;;;;13.60;8.60;;;;;;;22.93;68.42;99658.41;5086360;28;20039;-79
2023/09/11 03:57:35;;;;;;;18.00;10.15;;;;;;;22.86;68.82;99653.44;5086683;28;20842;-79
2023/09/11 04:00:00;;;;;;;16.55;9.55;;;;;;;22.82;69.27;99657.28;5086935;28;20472;-79
2023/09/11 04:02:25;;;;;;;23.63;11.77;;;;;;;22.73;69.47;99649.06;5086803;28;20032;-80
2023/09/11 04:04:50;;;;;;;22.37;11.57;;;;;;;22.68;69.64;99652.09;5086885;28;20040;-80
2023/09/11 04:07:16;;;;;;;27.27;11.63;;;;;;;22.62;69.80;99648.72;5086191;28;20650;-80
2023/09/11 04:09:41;;;;;;;21.35;10.98;;;;;;;22.55;69.57;99643.75;5086738;28;20039;-79
2023/09/11 04:12:06;;;;;;;24.75;12.10;;;;;;;22.50;69.72;99647.56;5086566;28;20142;-81
2023/09/11 04:14:37;;;;;;;29.15;11.73;;;;;;;22.49;70.01;99645.97;5085981;28;20036;-79
2023/09/11 04:17:02;;;;;;;14.73;11.52;;;;;;;22.46;69.77;99635.53;5086529;28;20048;-80
2023/09/11 04:19:27;;;;;;;21.02;9.55;;;;;;;22.49;69.91;99634.03;5086060;28;20755;-80
2023/09/11 04:21:53;;;;;;;18.10;9.33;;;;;;;22.48;69.67;99641.56;5087227;28;20032;-79
2023/09/11 04:24:18;;;;;;;22.37;9.00;;;;;;;22.50;69.54;99639.25;5086328;28;20031;-73
2023/09/11 04:26:44;;;;;;;26.93;10.50;;;;;;;22.59;69.21;99633.56;5084590;28;20123;-74
2023/09/11 04:29:10;;;;;;;18.08;9.20;;;;;;;22.63;69.21;99630.91;5084335;28;20313;-73
2023/09/11 04:31:36;;;;;;;19.83;9.13;;;;;;;22.68;67.78;99636.22;5084026;28;20036;-73
2023/09/11 04:34:01;;;;;;;24.95;9.52;;;;;;;22.78;67.79;99634.13;5083944;28;20087;-73
2023/09/11 04:36:26;;;;;;;14.93;9.13;;;;;;;22.89;67.35;99637.22;5083822;28;20059;-72
2023/09/11 04:38:51;;;;;;;17.45;9.02;;;;;;;22.91;67.35;99621.00;5084531;28;20032;-73
2023/09/11 04:41:17;;;;;;;16.90;10.40;;;;;;;22.94;66.78;99626.66;5084014;28;20537;-72
2023/09/11 04:43:43;;;;;;;15.23;8.33;;;;;;;23.02;65.65;99621.31;5083047;28;20252;-72
2023/09/11 04:46:08;;;;;;;24.45;9.93;;;;;;;23.06;64.71;99622.22;5084136;28;20704;-73
2023/09/11 04:48:33;;;;;;;19.07;8.17;;;;;;;23.16;64.63;99630.06;5083981;28;20040;-71
2023/09/11 04:50:59;;;;;;;27.70;9.00;;;;;;;23.17;63.76;99626.09;5084285;28;20265;-72
2023/09/11 04:53:24;;;;;;;21.23;8.30;;;;;;;23.17;64.06;99620.53;5083059;28;20821;-72
2023/09/11 04:55:50;;;;;;;14.00;8.43;;;;;;;23.20;64.02;99619.84;5083896;28;20267;-73
2023/09/11 04:58:15;;;;;;;19.63;8.55;;;;;;;23.25;63.78;99623.53;5083553;28;20039;-72
2023/09/11 05:00:40;;;;;;;13.90;9.03;;;;;;;23.26;63.64;99620.41;5083586;28;20040;-73
2023/09/11 05:03:06;;;;;;;24.53;9.67;;;;;;;23.31;64.10;99622.91;5083737;28;20269;-72
2023/09/11 05:05:38;;;;;;;21.40;9.93;;;;;;;23.31;63.86;99628.47;5082811;28;20272;-71
2023/09/11 05:08:04;;;;;;;18.00;10.07;;;;;;;23.24;64.90;99633.03;5083949;28;20039;-74
2023/09/11 05:10:31;;;;;;;15.75;8.18;;;;;;;23.21;63.51;99623.41;5083057;28;20040;-74
2023/09/11 05:12:56;;;;;;;16.92;8.15;;;;;;;23.26;63.60;99631.53;5082671;28;20028;-72
2023/09/11 05:15:22;;;;;;;17.73;9.23;;;;;;;23.33;63.29;99630.88;5083421;28;20104;-73
2023/09/11 05:17:47;;;;;;;25.77;10.23;;;;;;;23.35;63.45;99627.78;5083092;28;20143;-72
2023/09/11 05:20:12;;;;;;;18.23;8.67;;;;;;;23.35;63.10;99633.34;5082997;28;20106;-72
2023/09/11 05:22:39;;;;;;;18.93;8.90;;;;;;;23.36;62.63;99632.16;5083459;28;21474;-73
2023/09/11 05:25:05;;;;;;;26.35;9.93;;;;;;;23.40;62.77;99628.31;5082716;28;20784;-72
2023/09/11 05:27:30;;;;;;;19.30;8.82;;;;;;;23.41;62.67;99629.91;5082792;28;20032;-75
2023/09/11 05:29:55;;;;;;;16.83;7.70;;;;;;;23.43;63.01;99624.81;5083444;28;20301;-72
2023/09/11 05:32:23;;;;;;;16.98;8.20;;;;;;;23.42;62.68;99628.78;5083271;28;20419;-72
2023/09/11 05:34:48;;;;;;;24.98;8.00;;;;;;;23.43;62.65;99624.81;5083080;28;20040;-75
2023/09/11 05:37:13;;;;;;;22.40;8.50;;;;;;;23.43;62.86;99630.38;5082650;28;20561;-72
2023/09/11 05:39:38;;;;;;;25.88;9.05;;;;;;;23.43;62.22;99624.03;5082922;28;20265;-72
2023/09/11 05:42:04;;;;;;;17.70;8.80;;;;;;;23.47;62.21;99624.97;5083085;28;20036;-72
2023/09/11 05:44:29;;;;;;;15.88;8.32;;;;;;;23.47;61.95;99630.53;5082385;28;20489;-72
2023/09/11 05:46:55;;;;;;;19.90;9.67;;;;;;;23.49;61.75;99632.94;5082707;28;20044;-72
2023/09/11 05:49:21;;;;;;;18.55;8.30;;;;;;;23.52;62.51;99629.44;5082617;28;20036;-72
2023/09/11 05:51:46;;;;;;;13.30;8.30;;;;;;;23.51;62.14;99636.19;5083107;28;20035;-72
2023/09/11 05:54:11;;;;;;;20.07;8.90;;;;;;;23.51;61.93;99636.97;5081819;28;20028;-72
2023/09/11 05:56:37;;;;;;;25.13;10.40;;;;;;;23.54;62.44;99629.88;5082998;28;20275;-72
2023/09/11 05:59:02;;;;;;;19.15;8.98;;;;;;;23.53;62.09;99628.28;5082694;28;20321;-73
2023/09/11 06:01:28;;;;;;;16.27;8.88;;;;;;;23.54;61.96;99635.44;5082495;28;20039;-72
2023/09/11 06:03:53;;;;;;;12.93;7.70;;;;;;;23.54;62.00;99629.88;5082140;28;20032;-73
2023/09/11 06:06:18;;;;;;;21.73;7.97;;;;;;;23.56;61.98;99630.34;5082608;28;20066;-72
2023/09/11 06:08:44;;;;;;;32.50;9.40;;;;;;;23.59;61.70;99643.56;5082636;28;20773;-73
2023/09/11 06:11:09;;;;;;;21.98;8.93;;;;;;;23.60;61.58;99639.59;5082653;28;20525;-72
2023/09/11 06:13:35;;;;;;;13.37;8.70;;;;;;;23.60;61.75;99634.03;5082131;28;20054;-72
2023/09/11 06:16:01;;;;;;;15.73;8.50;;;;;;;23.63;62.42;99644.47;5082347;28;20031;-72
2023/09/11 06:18:27;;;;;;;13.13;8.25;;;;;;;23.67;62.34;99639.78;5082628;28;20046;-73
2023/09/11 06:20:52;;;;;;;21.15;8.18;;;;;;;23.64;62.39;99639.69;5082337;28;20305;-72
2023/09/11 06:23:17;;;;;;;15.80;9.02;;;;;;;23.67;62.77;99644.53;5082172;28;20059;-72
2023/09/11 06:25:42;;;;;;;14.73;8.53;;;;;;;23.68;62.49;99643.38;5082178;28;20035;-73
2023/09/11 06:28:08;;;;;;;13.07;7.87;;;;;;;23.68;62.95;99648.94;5082722;28;20404;-73
2023/09/11 06:30:34;;;;;;;16.73;7.83;;;;;;;23.69;62.62;99650.56;5082340;28;20372;-72
2023/09/11 06:32:59;;;;;;;19.30;9.05;;;;;;;23.72;62.52;99643.44;5082117;28;20437;-72
2023/09/11 06:35:24;;;;;;;15.98;9.05;;;;;;;23.75;62.50;99651.09;5082411;28;20032;-72
2023/09/11 06:37:49;;;;;;;18.40;8.90;;;;;;;23.78;62.34;99658.72;5082477;28;20074;-72
2023/09/11 06:40:15;;;;;;;15.77;8.67;;;;;;;23.80;62.21;99656.38;5081052;28;20028;-73
2023/09/11 06:42:40;;;;;;;16.85;8.52;;;;;;;23.84;62.40;99651.72;5084827;28;20105;-73
2023/09/11 06:45:06;;;;;;;18.27;8.43;;;;;;;23.85;62.63;99658.09;5085939;28;20040;-80
2023/09/11 06:47:32;;;;;;;18.73;8.15;;;;;;;23.86;62.82;99652.16;5085977;28;20032;-81
2023/09/11 06:49:57;;;;;;;14.57;7.40;;;;;;;23.87;62.79;99653.81;5086411;28;20040;-81
2023/09/11 06:52:22;;;;;;;12.27;8.17;;;;;;;23.92;62.56;99654.69;5086419;28;20424;-80
2023/09/11 06:54:47;;;;;;;16.17;8.63;;;;;;;23.94;62.68;99658.72;5085723;28;20194;-80
2023/09/11 06:57:13;;;;;;;28.13;8.33;;;;;;;23.93;62.67;99659.09;5085745;28;20040;-80
2023/09/11 06:59:38;;;;;;;23.58;9.13;;;;;;;23.97;62.83;99657.19;5086209;28;20264;-80
2023/09/11 07:02:04;;;;;;;16.25;9.23;;;;;;;23.99;62.87;99652.09;5086348;28;20036;-80
2023/09/11 07:04:32;;;;;;;20.93;8.93;;;;;;;23.99;62.68;99650.13;5085133;28;20032;-80
2023/09/11 07:06:58;;;;;;;14.57;8.00;;;;;;;24.02;62.88;99654.16;5085332;28;20295;-81
2023/09/11 07:09:23;;;;;;;19.63;8.23;;;;;;;24.02;63.15;99648.59;5085801;28;20044;-80
2023/09/11 07:11:56;;;;;;;17.30;9.23;;;;;;;24.07;62.83;99658.63;5085606;28;20298;-80
2023/09/11 07:14:22;;;;;;;17.23;8.47;;;;;;;24.08;63.04;99649.13;5084054;28;20078;-80
2023/09/11 07:16:49;;;;;;;19.20;9.55;;;;;;;24.11;63.00;99640.84;5084892;28;20572;-80
2023/09/11 07:19:14;;;;;;;22.08;10.27;;;;;;;24.18;62.66;99654.16;5083910;28;20533;-80
2023/09/11 07:21:41;;;;;;;16.25;8.68;;;;;;;24.19;63.07;99655.75;5085591;28;20028;-80
2023/09/11 07:24:06;;;;;;;11.07;8.05;;;;;;;24.22;62.82;99649.50;5084757;28;20040;-80
2023/09/11 07:26:32;;;;;;;14.93;9.05;;;;;;;24.24;63.01;99660.28;5085017;28;20028;-81
2023/09/11 07:29:02;;;;;;;13.83;7.60;;;;;;;24.26;63.04;99646.81;5085307;28;20032;-80
2023/09/11 07:31:28;;;;;;;19.35;9.98;;;;;;;24.31;62.88;99652.09;5084861;28;20119;-80
2023/09/11 07:33:54;;;;;;;20.70;8.32;;;;;;;24.28;63.46;99649.22;5084343;28;20032;-80
2023/09/11 07:36:19;;;;;;;19.43;7.63;;;;;;;24.30;63.49;99642.13;5085086;28;20039;-80
2023/09/11 07:38:45;;;;;;;17.08;9.25;;;;;;;24.30;63.85;99644.91;5084651;28;20554;-79
2023/09/11 07:41:13;;;;;;;27.38;8.25;;;;;;;24.34;63.24;99647.78;5085070;28;20118;-79
2023/09/11 07:43:38;;;;;;;15.27;8.63;;;;;;;24.34;63.97;99648.59;5084302;28;20063;-80
2023/09/11 07:46:04;;;;;;;23.48;10.65;;;;;;;24.29;64.45;99646.06;5084832;28;20094;-72
2023/09/11 07:48:29;;;;;;;16.87;8.43;;;;;;;24.33;64.34;99640.56;5083963;28;20058;-72
2023/09/11 07:50:55;;;;;;;13.00;7.63;;;;;;;24.41;63.68;99641.56;5084065;28;20640;-73
2023/09/11 07:53:22;;;;;;;18.77;8.50;;;;;;;24.44;63.82;99638.88;5084566;28;20245;-83
2023/09/11 07:55:47;;;;;;;20.90;8.32;;;;;;;24.45;64.00;99643.25;5085285;28;20094;-80
2023/09/11 07:58:13;;;;;;;17.77;9.27;;;;;;;24.50;64.22;99636.59;5083342;28;20044;-80
2023/09/11 08:00:38;;;;;;;11.98;8.63;;;;;;;24.50;64.02;99633.81;5084819;28;20039;-80
2023/09/11 08:03:03;;;;;;;16.73;8.53;;;;;;;24.53;64.74;99633.06;5084518;28;20036;-81
2023/09/11 08:05:29;;;;;;;20.27;7.88;;;;;;;24.44;64.87;99633.28;5084370;28;20444;-82
2023/09/11 08:07:54;;;;;;;22.17;8.88;;;;;;;24.45;64.44;99642.47;5084310;28;20052;-80
2023/09/11 08:10:19;;;;;;;16.43;8.47;;;;;;;24.47;64.31;99634.53;5084647;28;20034;-82
2023/09/11 08:12:44;;;;;;;18.35;8.57;;;;;;;24.51;64.29;99643.00;5084709;28;20264;-81
2023/09/11 08:15:10;;;;;;;18.27;10.03;;;;;;;24.67;64.32;99640.16;5083707;28;20028;-81
2023/09/11 08:17:35;;;;;;;14.60;8.50;;;;;;;24.68;65.13;99631.44;5084367;28;20268;-80
2023/09/11 08:20:01;;;;;;;22.27;9.77;;;;;;;24.70;64.34;99642.19;5083861;28;20765;-80
2023/09/11 08:22:26;;;;;;;15.90;8.52;;;;;;;24.72;64.45;99631.50;5083923;28;20047;-81
2023/09/11 08:24:51;;;;;;;16.40;8.90;;;;;;;24.73;63.67;99635.91;5083944;28;20032;-81
2023/09/11 08:27:17;;;;;;;22.40;8.13;;;;;;;24.78;63.31;99637.59;5083988;28;21114;-81
2023/09/11 08:29:42;;;;;;;16.98;7.72;;;;;;;24.84;62.63;99644.47;5084116;28;20448;-82
2023/09/11 08:32:07;;;;;;;12.63;7.20;;;;;;;24.90;62.45;99642.22;5082445;28;20036;-81
2023/09/11 08:34:32;;;;;;;17.53;8.43;;;;;;;24.93;61.98;99645.09;5083811;28;20256;-81
2023/09/11 08:36:58;;;;;;;15.83;7.67;;;;;;;24.98;61.35;99646.78;5084804;28;20324;-81
2023/09/11 08:39:23;;;;;;;16.17;7.77;;;;;;;25.02;61.12;99647.69;5082800;28;20036;-82
2023/09/11 08:41:51;;;;;;;15.50;8.07;;;;;;;25.08;61.22;99644.63;5084090;28;20264;-81
2023/09/11 08:44:16;;;;;;;11.88;7.25;;;;;;;25.11;60.91;99649.44;5083616;28;20613;-82
2023/09/11 08:46:46;;;;;;;11.70;6.97;;;;;;;25.14;60.91;99654.28;5084055;28;20059;-82
2023/09/11 08:49:14;;;;;;;16.98;6.93;;;;;;;25.15;59.92;99644.75;5083896;28;20050;-80
2023/09/11 08:51:46;;;;;;;18.00;8.20;;;;;;;25.18;59.80;99652.38;5084460;28;20062;-80
2023/09/11 08:54:14;;;;;;;18.53;9.50;;;;;;;25.20;59.52;99647.25;5083467;28;20044;-80
2023/09/11 08:56:41;;;;;;;13.25;7.57;;;;;;;25.25;59.40;99643.34;5083980;28;20273;-79
2023/09/11 08:59:08;;;;;;;15.85;7.78;;;;;;;25.26;59.57;99640.19;5083788;28;20032;-79
2023/09/11 09:01:34;;;;;;;19.45;9.13;;;;;;;25.33;59.40;99638.69;5083153;28;20494;-79
2023/09/11 09:04:00;;;;;;;16.55;9.10;;;;;;;25.37;59.10;99634.00;5083044;28;20081;-79
2023/09/11 09:06:27;;;;;;;15.43;7.50;;;;;;;25.42;59.29;99630.91;5083050;28;20083;-79
2023/09/11 09:08:52;;;;;;;18.70;8.23;;;;;;;25.49;59.20;99631.03;5082887;28;20032;-75
2023/09/11 09:11:20;;;;;;;21.05;8.63;;;;;;;25.52;58.99;99633.09;5082220;28;20682;-80
2023/09/11 09:13:45;;;;;;;23.25;10.32;;;;;;;25.55;58.63;99637.13;5083146;28;20028;-81
2023/09/11 09:16:11;;;;;;;15.88;7.13;;;;;;;25.60;58.60;99624.84;5082904;28;20617;-81
2023/09/11 09:18:36;;;;;;;18.23;8.93;;;;;;;25.65;58.66;99628.13;5083394;28;20053;-80
2023/09/11 09:21:04;;;;;;;15.02;7.13;;;;;;;25.68;58.55;99629.41;5082924;28;20081;-80
2023/09/11 09:23:35;;;;;;;18.13;8.35;;;;;;;25.74;58.58;99630.72;5083161;28;20038;-79
2023/09/11 09:26:08;;;;;;;32.97;8.82;;;;;;;25.80;58.36;99645.16;5083497;28;20081;-81
2023/09/11 09:28:34;;;;;;;42.30;11.18;;;;;;;25.81;57.72;99638.38;5082544;28;20036;-79
2023/09/11 09:31:00;;;;;;;19.98;7.45;;;;;;;25.86;58.08;99626.13;5083646;28;20119;-78
2023/09/11 09:33:26;;;;;;;17.75;9.27;;;;;;;25.94;58.41;99627.84;5082419;28;20038;-79
2023/09/11 09:35:52;;;;;;;28.02;9.65;;;;;;;26.00;58.62;99629.16;5081666;28;20469;-78
2023/09/11 09:38:20;;;;;;;23.85;9.57;;;;;;;26.05;57.61;99627.22;5082903;28;20036;-77
2023/09/11 09:40:46;;;;;;;16.25;9.10;;;;;;;26.07;57.67;99631.25;5083159;28;20182;-78
2023/09/11 09:43:18;;;;;;;14.05;8.32;;;;;;;26.11;57.21;99626.53;5083506;28;20536;-80
2023/09/11 09:45:45;;;;;;;16.27;8.23;;;;;;;26.12;57.41;99621.72;5081005;28;20059;-80
2023/09/11 09:48:18;;;;;;;13.00;8.02;;;;;;;26.17;56.63;99613.06;5082792;28;20287;-79
2023/09/11 09:51:10;;;;;;;17.80;8.43;;;;;;;26.25;56.92;99613.97;5083109;28;20031;-81
2023/09/11 09:53:46;;;;;;;19.25;8.77;;;;;;;26.26;56.24;99609.97;5079231;28;20048;-78
2023/09/11 09:56:13;;;;;;;17.58;8.43;;;;;;;26.31;56.23;99609.66;5083704;28;20024;-79
2023/09/11 09:58:40;;;;;;;14.05;8.70;;;;;;;26.35;55.92;99613.31;5083773;28;20069;-78
2023/09/11 10:01:08;;;;;;;21.42;8.70;;;;;;;26.39;55.97;99604.19;5083534;28;20396;-78
2023/09/11 10:03:39;;;;;;;24.85;8.70;;;;;;;26.48;55.86;99609.53;5082835;28;20263;-79
2023/09/11 10:06:09;;;;;;;18.70;8.35;;;;;;;26.52;55.49;99607.59;5082224;28;20056;-82
2023/09/11 10:08:35;;;;;;;17.30;8.88;;;;;;;26.58;55.71;99597.69;5084309;28;20028;-81
2023/09/11 10:11:00;;;;;;;21.50;9.15;;;;;;;26.62;56.32;99603.31;5084480;28;20043;-84
2023/09/11 10:13:27;;;;;;;16.15;7.93;;;;;;;26.67;56.60;99601.00;5083758;28;20036;-82
2023/09/11 10:15:56;;;;;;;24.05;11.15;;;;;;;26.71;55.97;99591.84;5084760;28;20044;-82
2023/09/11 10:18:23;;;;;;;15.50;8.32;;;;;;;26.75;55.77;99587.91;5087032;28;20032;-82
2023/09/11 10:20:50;;;;;;;16.23;8.82;;;;;;;26.81;56.16;99580.78;5088252;28;20130;-82
2023/09/11 10:23:15;;;;;;;17.35;8.10;;;;;;;26.87;55.96;99586.84;5088456;28;20074;-82
2023/09/11 10:25:46;;;;;;;12.50;8.07;;;;;;;26.95;56.09;99575.75;5087764;28;20461;-82
2023/09/11 10:28:28;;;;;;;13.48;7.40;;;;;;;26.99;55.91;99571.00;5088028;28;20046;-82
2023/09/11 10:31:03;;;;;;;13.80;8.17;;;;;;;27.04;54.66;99567.84;5088453;28;20031;-82
2023/09/11 10:33:30;;;;;;;15.10;8.48;;;;;;;27.08;55.46;99565.94;5087403;28;20710;-82
2023/09/11 10:35:59;;;;;;;12.60;7.47;;;;;;;27.10;54.45;99577.53;5088455;28;20043;-81
2023/09/11 10:38:30;;;;;;;15.93;8.48;;;;;;;27.16;54.86;99569.59;5087740;28;20407;-82
2023/09/11 10:40:57;;;;;;;20.17;8.75;;;;;;;27.23;54.36;99564.09;5087979;28;20028;-82
2023/09/11 10:43:24;;;;;;;31.20;9.43;;;;;;;27.26;53.82;99562.50;5087984;28;20032;-83
2023/09/11 10:45:51;;;;;;;24.63;8.07;;;;;;;27.43;52.29;99558.28;5087619;28;20063;-83
2023/09/11 10:48:28;;;;;;;10.10;6.88;;;;;;;27.55;53.17;99556.38;5086297;28;20463;-82
2023/09/11 10:50:56;;;;;;;30.75;9.85;;;;;;;27.54;52.86;99561.16;5087542;28;20215;-81
2023/09/11 10:53:25;;;;;;;17.15;7.40;;;;;;;27.52;52.85;99557.94;5087167;28;20032;-83
2023/09/11 10:55:50;;;;;;;12.65;8.20;;;;;;;27.58;52.31;99556.41;5085333;28;20035;-82
2023/09/11 10:58:15;;;;;;;19.02;7.32;;;;;;;27.61;51.86;99550.03;5086966;28;20042;-83
2023/09/11 11:00:41;;;;;;;13.95;7.85;;;;;;;27.63;51.71;99550.47;5087701;28;20119;-82
2023/09/11 11:03:06;;;;;;;16.40;8.27;;;;;;;27.76;52.51;99558.59;5087110;28;20032;-82
2023/09/11 11:05:32;;;;;;;19.63;8.32;;;;;;;27.85;52.38;99559.06;5086132;28;20044;-82
2023/09/11 11:07:58;;;;;;;17.17;7.85;;;;;;;27.85;52.23;99564.66;5087005;28;20039;-82
2023/09/11 11:10:23;;;;;;;16.35;7.65;;;;;;;27.87;51.67;99555.06;5086954;28;20527;-82
2023/09/11 11:12:48;;;;;;;18.93;6.93;;;;;;;27.95;51.58;99553.91;5086953;28;20854;-82
2023/09/11 11:15:21;;;;;;;15.20;7.97;;;;;;;27.95;51.72;99553.91;5086860;28;20467;-83
2023/09/11 11:17:46;;;;;;;17.98;7.53;;;;;;;27.92;51.33;99552.72;5087102;28;20501;-84
2023/09/11 11:20:17;;;;;;;16.13;7.90;;;;;;;27.96;51.58;99555.53;5087224;28;20077;-84